Time;durP1;ratioP1;P1;durP2;ratioP2;P2;SDS_P1;SDS_P2;PMS_P1;PMS_P2;Temp;Humidity;BMP_temperature;BMP_pressure;BME280_temperature;BME280_humidity;BME280_pressure;Samples;Min_cycle;Max_cycle;Signal;HPM_P1;HPM_P2
2023/06/08 00:01:54;;;;;;;5.80;4.35;;;20.40;99.90;;;;;;5089177;28;20269;-72
2023/06/08 00:04:30;;;;;;;5.50;4.97;;;20.40;99.90;;;;;;5088313;28;20277;-72
2023/06/08 00:06:59;;;;;;;5.30;4.68;;;20.30;99.90;;;;;;5089136;28;20187;-72
2023/06/08 00:09:27;;;;;;;7.60;5.15;;;20.30;99.90;;;;;;5088955;28;20207;-72
2023/06/08 00:11:55;;;;;;;6.78;4.82;;;20.30;99.90;;;;;;5088905;28;20224;-72
2023/06/08 00:14:23;;;;;;;5.38;4.53;;;20.30;99.90;;;;;;5088855;28;20317;-72
2023/06/08 00:16:51;;;;;;;5.30;4.72;;;20.30;99.90;;;;;;5088166;28;20269;-72
2023/06/08 00:19:19;;;;;;;5.13;4.63;;;20.30;99.90;;;;;;5089126;28;20253;-72
2023/06/08 00:21:49;;;;;;;7.53;5.25;;;20.30;99.90;;;;;;5088729;28;20204;-73
2023/06/08 00:24:19;;;;;;;5.45;4.90;;;20.30;99.90;;;;;;5088691;28;20258;-72
2023/06/08 00:26:47;;;;;;;7.40;4.90;;;20.30;99.90;;;;;;5087182;28;20208;-73
2023/06/08 00:29:15;;;;;;;6.90;5.03;;;20.30;99.90;;;;;;5089061;28;20257;-72
2023/06/08 00:31:42;;;;;;;5.05;4.60;;;20.20;99.90;;;;;;5088452;28;20227;-72
2023/06/08 00:34:10;;;;;;;5.18;4.30;;;20.20;99.90;;;;;;5088408;28;20339;-73
2023/06/08 00:36:38;;;;;;;4.85;4.45;;;20.20;99.90;;;;;;5087576;28;20207;-72
2023/06/08 00:39:08;;;;;;;8.05;5.00;;;20.20;99.90;;;;;;5088481;28;20208;-72
2023/06/08 00:41:36;;;;;;;5.85;4.78;;;20.20;99.90;;;;;;5088313;28;20273;-72
2023/06/08 00:44:05;;;;;;;5.82;4.75;;;20.10;99.90;;;;;;5088594;28;20315;-72
2023/06/08 00:46:33;;;;;;;7.15;5.40;;;20.10;99.90;;;;;;5087343;28;20224;-72
2023/06/08 00:49:01;;;;;;;7.78;4.95;;;20.10;99.90;;;;;;5088187;28;20594;-73
2023/06/08 00:51:32;;;;;;;5.40;4.88;;;20.10;99.90;;;;;;5087981;28;20680;-72
2023/06/08 00:53:59;;;;;;;7.25;5.10;;;20.10;99.90;;;;;;5087706;28;20246;-72
2023/06/08 00:56:31;;;;;;;7.55;5.05;;;20.00;99.90;;;;;;5087333;28;20246;-72
2023/06/08 00:59:00;;;;;;;8.10;4.80;;;20.00;99.90;;;;;;5088438;28;20229;-72
2023/06/08 01:01:29;;;;;;;9.48;5.10;;;20.00;99.90;;;;;;5087614;28;20196;-72
2023/06/08 01:04:05;;;;;;;5.40;4.32;;;20.00;99.90;;;;;;5088130;28;20305;-72
2023/06/08 01:06:35;;;;;;;5.55;5.07;;;20.00;99.90;;;;;;5087325;28;20242;-72
2023/06/08 01:09:12;;;;;;;7.70;4.60;;;20.00;99.90;;;;;;5088422;28;20287;-73
2023/06/08 01:11:47;;;;;;;8.15;4.75;;;19.90;99.90;;;;;;5088050;28;20219;-73
2023/06/08 01:14:21;;;;;;;5.40;4.90;;;19.90;99.90;;;;;;5087713;28;20269;-73
2023/06/08 01:16:50;;;;;;;10.55;5.03;;;19.80;99.90;;;;;;5087121;28;20203;-73
2023/06/08 01:19:23;;;;;;;6.60;5.28;;;19.80;99.90;;;;;;5087702;28;20732;-73
2023/06/08 01:22:01;;;;;;;5.53;5.03;;;19.80;99.90;;;;;;5087730;28;20285;-73
2023/06/08 01:24:31;;;;;;;6.25;5.38;;;19.80;99.90;;;;;;5087175;28;20302;-72
2023/06/08 01:26:59;;;;;;;7.25;5.00;;;19.70;99.90;;;;;;5087823;28;20262;-72
2023/06/08 01:29:33;;;;;;;5.32;4.68;;;19.70;99.90;;;;;;5087749;28;20196;-72
2023/06/08 01:32:01;;;;;;;5.50;4.90;;;19.60;99.90;;;;;;5087671;28;20200;-73
2023/06/08 01:34:29;;;;;;;5.72;5.05;;;19.60;99.90;;;;;;5087356;28;20239;-73
2023/06/08 01:37:00;;;;;;;7.60;4.68;;;19.60;99.90;;;;;;5087456;28;20254;-73
2023/06/08 01:39:41;;;;;;;5.72;4.68;;;19.50;99.90;;;;;;5091203;28;20216;-72
2023/06/08 01:42:09;;;;;;;6.78;4.50;;;19.50;99.90;;;;;;5091115;28;20208;-73
2023/06/08 01:44:39;;;;;;;5.68;5.18;;;19.50;99.90;;;;;;5070625;28;20220;-73
2023/06/08 01:47:08;;;;;;;7.97;5.40;;;19.50;99.90;;;;;;5071623;28;20189;-73
2023/06/08 01:49:35;;;;;;;5.43;4.93;;;19.50;99.90;;;;;;5071535;28;20219;-72
2023/06/08 01:52:04;;;;;;;7.03;5.47;;;19.40;99.90;;;;;;5071292;28;20231;-72
2023/06/08 01:54:36;;;;;;;9.00;4.85;;;19.40;99.90;;;;;;5070417;28;20728;-72
2023/06/08 01:57:04;;;;;;;5.47;4.70;;;19.40;99.90;;;;;;5067925;28;20185;-72
2023/06/08 01:59:32;;;;;;;5.75;4.53;;;19.40;99.90;;;;;;5071439;28;20276;-72
2023/06/08 02:02:04;;;;;;;7.03;4.43;;;19.40;99.90;;;;;;5073444;28;20211;-72
2023/06/08 02:04:32;;;;;;;5.13;4.70;;;19.30;99.90;;;;;;5074379;28;20641;-72
2023/06/08 02:06:59;;;;;;;8.00;5.05;;;19.30;99.90;;;;;;5074623;28;20204;-72
2023/06/08 02:09:27;;;;;;;5.18;4.60;;;19.30;99.90;;;;;;5074793;28;20240;-72
2023/06/08 02:12:06;;;;;;;5.05;4.53;;;19.30;99.90;;;;;;5074642;28;20204;-72
2023/06/08 02:14:34;;;;;;;6.28;4.88;;;19.20;99.90;;;;;;5073665;28;20250;-72
2023/06/08 02:17:03;;;;;;;5.43;4.60;;;19.20;99.90;;;;;;5074746;28;20243;-73
2023/06/08 02:19:32;;;;;;;8.43;4.90;;;19.20;99.90;;;;;;5075009;28;20579;-72
2023/06/08 02:22:00;;;;;;;5.85;4.55;;;19.20;99.90;;;;;;5074301;28;20291;-73
2023/06/08 02:24:28;;;;;;;5.15;4.63;;;19.20;99.90;;;;;;5074335;28;20312;-72
2023/06/08 02:26:55;;;;;;;5.28;4.55;;;19.10;99.90;;;;;;5073680;28;20197;-72
2023/06/08 02:29:26;;;;;;;6.90;4.80;;;19.10;99.90;;;;;;5074742;28;20255;-73
2023/06/08 02:31:54;;;;;;;6.72;4.57;;;19.00;99.90;;;;;;5074403;28;20251;-72
2023/06/08 02:34:23;;;;;;;9.20;5.25;;;19.00;99.90;;;;;;5074220;28;20604;-72
2023/06/08 02:36:51;;;;;;;7.50;4.93;;;19.00;99.90;;;;;;5073472;28;20235;-73
2023/06/08 02:39:18;;;;;;;5.50;4.70;;;19.00;99.90;;;;;;5074304;28;20736;-72
2023/06/08 02:41:46;;;;;;;6.50;4.32;;;18.90;99.90;;;;;;5084388;28;20204;-72
2023/06/08 02:44:14;;;;;;;7.50;4.60;;;18.90;99.90;;;;;;5078342;28;20224;-72
2023/06/08 02:46:43;;;;;;;7.75;4.53;;;18.90;99.90;;;;;;5076619;28;20188;-73
2023/06/08 02:49:12;;;;;;;5.18;4.70;;;18.90;99.90;;;;;;5094250;28;20261;-73
2023/06/08 02:51:40;;;;;;;9.30;5.38;;;18.90;99.90;;;;;;5093487;28;20311;-72
2023/06/08 02:54:07;;;;;;;5.15;4.65;;;18.80;99.90;;;;;;5089100;28;20294;-72
2023/06/08 02:56:35;;;;;;;5.63;5.20;;;18.80;99.90;;;;;;5090192;28;20224;-73
2023/06/08 02:59:03;;;;;;;5.80;4.60;;;18.80;99.90;;;;;;5094352;28;20211;-73
2023/06/08 03:01:36;;;;;;;5.82;5.05;;;18.80;99.90;;;;;;5093987;28;20585;-72
2023/06/08 03:04:06;;;;;;;6.30;5.03;;;18.80;99.90;;;;;;5082739;28;20216;-72
2023/06/08 03:06:36;;;;;;;5.93;4.93;;;18.70;99.90;;;;;;5090558;28;20242;-72
2023/06/08 03:09:04;;;;;;;7.13;4.78;;;18.60;99.90;;;;;;5090490;28;20207;-72
2023/06/08 03:11:32;;;;;;;6.10;5.05;;;18.60;99.90;;;;;;5090711;28;20250;-72
2023/06/08 03:14:00;;;;;;;7.82;5.07;;;18.60;99.90;;;;;;5090162;28;20657;-71
2023/06/08 03:16:28;;;;;;;9.15;5.22;;;18.60;99.90;;;;;;5089507;28;20335;-71
2023/06/08 03:18:56;;;;;;;5.32;4.82;;;18.50;99.90;;;;;;5090267;28;20204;-71
2023/06/08 03:21:28;;;;;;;6.55;5.40;;;18.50;99.90;;;;;;5090243;28;20253;-71
2023/06/08 03:23:56;;;;;;;6.97;5.20;;;18.50;99.90;;;;;;5090308;28;20310;-71
2023/06/08 03:26:24;;;;;;;7.65;4.95;;;18.50;99.90;;;;;;5089547;28;20235;-71
2023/06/08 03:28:52;;;;;;;6.65;5.13;;;18.50;99.90;;;;;;5090039;28;20223;-73
2023/06/08 03:31:20;;;;;;;5.43;5.03;;;18.50;99.90;;;;;;5089995;28;20812;-72
2023/06/08 03:33:48;;;;;;;5.80;5.22;;;18.50;99.90;;;;;;5089811;28;20227;-72
2023/06/08 03:36:17;;;;;;;6.30;5.70;;;18.50;99.90;;;;;;5089098;28;20665;-71
2023/06/08 03:38:47;;;;;;;8.38;5.32;;;18.50;99.90;;;;;;5089855;28;20210;-71
2023/06/08 03:41:15;;;;;;;5.57;5.18;;;18.40;99.90;;;;;;5089843;28;20295;-71
2023/06/08 03:43:43;;;;;;;6.30;5.65;;;18.50;99.90;;;;;;5075555;28;20289;-71
2023/06/08 03:46:10;;;;;;;6.50;5.68;;;18.50;99.90;;;;;;5068335;28;20239;-72
2023/06/08 03:48:38;;;;;;;8.68;5.35;;;18.50;99.90;;;;;;5069229;28;20210;-72
2023/06/08 03:51:06;;;;;;;7.95;5.05;;;18.40;99.90;;;;;;5069009;28;20252;-73
2023/06/08 03:53:34;;;;;;;5.90;5.30;;;18.40;99.90;;;;;;5078059;28;20326;-71
2023/06/08 03:56:04;;;;;;;5.57;5.15;;;18.40;99.90;;;;;;5080700;28;20212;-72
2023/06/08 03:58:32;;;;;;;5.63;5.18;;;18.40;99.90;;;;;;5089425;28;20661;-71
2023/06/08 04:01:00;;;;;;;6.18;5.57;;;18.40;99.90;;;;;;5089091;28;20293;-71
2023/06/08 04:03:29;;;;;;;6.28;5.60;;;18.40;99.90;;;;;;5088635;28;20288;-71
2023/06/08 04:05:57;;;;;;;5.90;5.38;;;18.40;99.90;;;;;;5088129;28;20222;-73
2023/06/08 04:08:26;;;;;;;9.25;5.30;;;18.40;99.90;;;;;;5089670;28;20622;-72
2023/06/08 04:10:54;;;;;;;5.55;5.05;;;18.30;99.90;;;;;;5089041;28;20273;-72
2023/06/08 04:13:24;;;;;;;5.15;4.82;;;18.30;99.90;;;;;;5088996;28;20263;-73
2023/06/08 04:15:51;;;;;;;8.73;5.78;;;18.40;99.90;;;;;;5088175;28;20253;-72
2023/06/08 04:18:19;;;;;;;5.70;5.10;;;18.30;99.90;;;;;;5089197;28;20287;-72
2023/06/08 04:20:47;;;;;;;6.65;5.03;;;18.30;99.90;;;;;;5088884;28;20244;-72
2023/06/08 04:23:15;;;;;;;6.72;5.43;;;18.30;99.90;;;;;;5088840;28;20224;-72
2023/06/08 04:25:43;;;;;;;10.35;5.72;;;18.30;99.90;;;;;;5088096;28;20188;-72
2023/06/08 04:28:12;;;;;;;5.93;5.43;;;18.40;99.90;;;;;;5089067;28;20231;-72
2023/06/08 04:30:41;;;;;;;5.55;5.15;;;18.40;99.90;;;;;;5089164;28;20204;-72
2023/06/08 04:33:09;;;;;;;8.60;5.78;;;18.40;99.90;;;;;;5099798;22;20451;-62
2023/06/08 04:35:37;;;;;;;5.65;5.13;;;18.50;99.90;;;;;;5070819;28;20690;-62
2023/06/08 04:38:12;;;;;;;6.32;5.40;;;18.50;99.90;;;;;;5060311;28;20225;-62
2023/06/08 04:40:41;;;;;;;5.90;5.22;;;18.50;99.90;;;;;;5069289;28;20219;-62
2023/06/08 04:43:09;;;;;;;5.97;5.47;;;18.50;99.90;;;;;;5071996;28;20205;-63
2023/06/08 04:45:37;;;;;;;6.68;5.50;;;18.50;99.90;;;;;;5071523;28;20224;-62
2023/06/08 04:48:07;;;;;;;5.70;5.20;;;18.50;99.90;;;;;;5071933;28;20283;-62
2023/06/08 04:50:37;;;;;;;5.72;5.22;;;18.60;99.90;;;;;;5071491;28;20225;-62
2023/06/08 04:53:05;;;;;;;5.97;5.47;;;18.60;99.90;;;;;;5072059;28;20291;-62
2023/06/08 04:55:33;;;;;;;7.03;5.40;;;18.60;99.90;;;;;;5071511;28;20292;-62
2023/06/08 04:58:01;;;;;;;6.05;5.35;;;18.60;99.90;;;;;;5071752;28;20331;-63
2023/06/08 05:00:29;;;;;;;6.28;5.68;;;18.60;99.90;;;;;;5071648;28;20225;-62
2023/06/08 05:02:58;;;;;;;7.05;6.45;;;18.70;99.90;;;;;;5071654;28;20696;-63
2023/06/08 05:05:27;;;;;;;6.18;5.68;;;18.70;99.90;;;;;;5071218;28;20269;-62
2023/06/08 05:07:55;;;;;;;5.60;5.13;;;18.70;99.90;;;;;;5071814;28;20239;-62
2023/06/08 05:10:23;;;;;;;8.77;5.90;;;18.70;99.90;;;;;;5070097;28;20728;-63
2023/06/08 05:12:53;;;;;;;8.65;6.20;;;18.70;99.90;;;;;;5070570;28;20201;-63
2023/06/08 05:15:21;;;;;;;6.75;5.63;;;18.80;99.90;;;;;;5070742;28;20722;-62
2023/06/08 05:17:51;;;;;;;6.60;5.80;;;18.80;99.90;;;;;;5070677;28;20680;-63
2023/06/08 05:20:19;;;;;;;6.32;5.75;;;18.80;99.90;;;;;;5071167;28;20220;-63
2023/06/08 05:22:49;;;;;;;6.22;5.72;;;18.80;99.90;;;;;;5071494;28;20284;-62
2023/06/08 05:25:17;;;;;;;6.50;5.90;;;18.80;99.90;;;;;;5071369;28;20295;-62
2023/06/08 05:27:44;;;;;;;6.38;5.32;;;18.90;99.90;;;;;;5071178;28;20200;-62
2023/06/08 05:30:13;;;;;;;10.35;6.10;;;18.90;99.90;;;;;;5071256;28;20285;-60
2023/06/08 05:32:40;;;;;;;5.50;5.10;;;18.90;99.90;;;;;;5071743;28;20208;-59
2023/06/08 05:35:09;;;;;;;6.90;6.05;;;19.00;99.90;;;;;;5071175;28;20240;-60
2023/06/08 05:37:37;;;;;;;9.02;5.90;;;19.00;99.90;;;;;;5071610;28;20237;-59
2023/06/08 05:40:09;;;;;;;7.50;5.75;;;19.00;99.90;;;;;;5071429;28;20278;-59
2023/06/08 05:42:37;;;;;;;5.75;5.05;;;19.00;99.90;;;;;;5071343;28;20774;-60
2023/06/08 05:45:05;;;;;;;7.15;5.85;;;19.00;99.90;;;;;;5070906;28;20747;-60
2023/06/08 05:47:33;;;;;;;6.13;5.57;;;19.00;99.90;;;;;;5071400;28;20221;-60
2023/06/08 05:50:02;;;;;;;6.45;5.80;;;18.90;99.90;;;;;;5091065;22;20238;-75
2023/06/08 05:52:30;;;;;;;5.78;5.28;;;18.90;99.90;;;;;;5087762;28;20204;-74
2023/06/08 05:54:58;;;;;;;7.00;6.10;;;18.90;99.90;;;;;;5085364;28;20687;-74
2023/06/08 05:57:28;;;;;;;6.50;5.88;;;18.90;99.90;;;;;;5086612;28;20232;-74
2023/06/08 05:59:56;;;;;;;6.25;5.68;;;18.90;99.90;;;;;;5087461;28;20192;-74
2023/06/08 06:02:24;;;;;;;6.70;5.13;;;18.90;99.90;;;;;;5087869;28;20236;-75
2023/06/08 06:04:52;;;;;;;9.50;6.13;;;18.80;99.90;;;;;;5087165;28;20224;-74
2023/06/08 06:07:20;;;;;;;11.88;5.60;;;18.80;99.90;;;;;;5087761;28;20184;-74
2023/06/08 06:09:48;;;;;;;7.43;6.25;;;18.80;99.90;;;;;;5086352;28;20208;-75
2023/06/08 06:12:16;;;;;;;8.13;6.03;;;18.80;99.90;;;;;;5082532;28;20223;-74
2023/06/08 06:14:45;;;;;;;7.05;5.70;;;18.80;99.90;;;;;;5087513;28;20228;-75
2023/06/08 06:17:15;;;;;;;6.97;5.90;;;18.80;99.90;;;;;;5088055;28;20208;-74
2023/06/08 06:19:43;;;;;;;6.68;6.03;;;18.80;99.90;;;;;;5077854;28;20192;-75
2023/06/08 06:22:11;;;;;;;6.30;5.80;;;18.80;99.90;;;;;;5087173;28;20292;-75
2023/06/08 06:24:39;;;;;;;6.50;6.00;;;18.80;99.90;;;;;;5087453;28;20255;-75
2023/06/08 06:27:07;;;;;;;6.25;5.63;;;18.80;99.90;;;;;;5091698;28;20227;-74
2023/06/08 06:29:35;;;;;;;6.50;5.70;;;18.90;99.90;;;;;;5091871;28;20242;-74
2023/06/08 06:32:05;;;;;;;7.15;6.28;;;19.00;99.90;;;;;;5092051;28;20227;-74
2023/06/08 06:34:33;;;;;;;6.18;5.70;;;19.10;99.90;;;;;;5091495;28;20326;-75
2023/06/08 06:37:01;;;;;;;6.80;5.90;;;19.20;99.90;;;;;;5090345;28;20219;-74
2023/06/08 06:39:29;;;;;;;6.25;5.65;;;19.30;99.90;;;;;;5090204;28;20253;-74
2023/06/08 06:41:57;;;;;;;8.13;6.80;;;19.50;99.90;;;;;;5088210;28;20272;-75
2023/06/08 06:44:25;;;;;;;6.88;5.65;;;19.50;99.90;;;;;;5090300;28;20219;-74
2023/06/08 06:46:53;;;;;;;6.65;6.03;;;19.70;99.90;;;;;;5090808;28;20326;-74
2023/06/08 06:49:22;;;;;;;6.28;5.47;;;19.80;99.90;;;;;;5091158;28;20692;-74
2023/06/08 06:51:50;;;;;;;14.45;6.18;;;19.90;99.90;;;;;;5091490;28;20595;-75
2023/06/08 06:54:18;;;;;;;7.13;5.75;;;20.00;99.90;;;;;;5086179;28;20315;-74
2023/06/08 06:56:46;;;;;;;7.20;5.88;;;20.20;99.90;;;;;;5090840;28;20276;-74
2023/06/08 06:59:15;;;;;;;8.40;4.85;;;20.20;99.90;;;;;;5090738;28;20269;-74
2023/06/08 07:01:43;;;;;;;6.85;5.60;;;20.40;99.90;;;;;;5091201;28;20200;-74
2023/06/08 07:04:11;;;;;;;9.00;5.80;;;20.50;99.90;;;;;;5091066;28;20224;-74
2023/06/08 07:06:42;;;;;;;9.50;5.60;;;20.60;99.90;;;;;;5090357;28;20203;-73
2023/06/08 07:09:11;;;;;;;8.05;5.18;;;20.70;99.90;;;;;;5090741;28;20184;-73
2023/06/08 07:11:39;;;;;;;6.13;5.55;;;20.80;99.90;;;;;;5090783;28;20212;-73
2023/06/08 07:14:07;;;;;;;6.15;5.60;;;20.90;99.90;;;;;;5091027;28;20300;-73
2023/06/08 07:16:35;;;;;;;6.13;5.55;;;21.00;99.90;;;;;;5089668;28;20208;-75
2023/06/08 07:19:03;;;;;;;7.13;5.15;;;21.10;99.90;;;;;;5090939;28;20668;-75
2023/06/08 07:21:31;;;;;;;5.85;5.45;;;21.20;99.90;;;;;;5090269;28;20200;-75
2023/06/08 07:24:13;;;;;;;5.35;4.97;;;21.30;99.90;;;;;;5090631;28;20223;-75
2023/06/08 07:27:01;;;;;;;5.78;5.30;;;21.40;99.90;;;;;;5089931;28;20204;-75
2023/06/08 07:29:29;;;;;;;5.70;5.22;;;21.40;99.90;;;;;;5090391;28;20204;-74
2023/06/08 07:31:57;;;;;;;6.10;5.70;;;21.50;99.90;;;;;;5090291;28;20228;-74
2023/06/08 07:34:26;;;;;;;8.25;5.50;;;21.50;99.90;;;;;;5090249;28;20699;-74
2023/06/08 07:36:53;;;;;;;7.00;5.20;;;21.60;99.90;;;;;;5085267;28;20208;-74
2023/06/08 07:39:23;;;;;;;6.38;5.78;;;21.60;99.90;;;;;;5089975;28;20716;-74
2023/06/08 07:41:51;;;;;;;10.68;5.90;;;21.60;99.90;;;;;;5090096;28;20722;-74
2023/06/08 07:44:19;;;;;;;5.55;5.05;;;21.70;99.90;;;;;;5089675;28;20220;-74
2023/06/08 07:46:46;;;;;;;6.97;5.80;;;21.80;99.90;;;;;;5089994;28;20432;-74
2023/06/08 07:49:14;;;;;;;7.22;5.93;;;21.80;99.90;;;;;;5089675;28;20673;-76
2023/06/08 07:51:42;;;;;;;6.57;5.53;;;22.00;99.90;;;;;;5089340;28;20212;-74
2023/06/08 07:54:10;;;;;;;5.80;5.32;;;22.00;99.90;;;;;;5087358;28;20318;-74
2023/06/08 07:56:40;;;;;;;7.82;5.63;;;22.20;99.90;;;;;;5085819;28;20332;-73
2023/06/08 07:59:08;;;;;;;5.70;5.30;;;22.20;99.90;;;;;;5088089;28;20712;-74
2023/06/08 08:01:36;;;;;;;7.35;5.88;;;22.40;99.90;;;;;;5088683;28;20308;-74
2023/06/08 08:04:04;;;;;;;6.65;6.00;;;22.40;99.90;;;;;;5088267;28;20260;-74
2023/06/08 08:06:32;;;;;;;8.02;6.15;;;22.50;99.90;;;;;;5086860;28;20248;-74
2023/06/08 08:09:00;;;;;;;6.03;5.43;;;22.60;99.90;;;;;;5089092;28;20286;-74
2023/06/08 08:11:28;;;;;;;7.05;5.82;;;22.60;99.90;;;;;;5088281;28;20283;-73
2023/06/08 08:13:57;;;;;;;8.50;6.38;;;22.70;99.90;;;;;;5085199;28;20265;-73
2023/06/08 08:16:25;;;;;;;26.40;6.47;;;22.80;99.90;;;;;;5076149;28;20612;-74
2023/06/08 08:18:53;;;;;;;6.57;6.00;;;22.80;99.90;;;;;;5087721;28;20380;-73
2023/06/08 08:21:21;;;;;;;6.20;5.70;;;22.90;99.90;;;;;;5086141;28;20295;-74
2023/06/08 08:23:49;;;;;;;6.60;5.93;;;22.90;99.90;;;;;;5088809;28;20314;-74
2023/06/08 08:26:17;;;;;;;8.77;6.32;;;23.00;99.90;;;;;;5082069;28;20261;-74
2023/06/08 08:28:46;;;;;;;8.93;5.80;;;23.00;99.90;;;;;;5084506;28;20657;-73
2023/06/08 08:31:15;;;;;;;6.55;5.85;;;23.10;99.90;;;;;;5087806;28;20681;-73
2023/06/08 08:33:43;;;;;;;6.45;5.80;;;23.20;99.90;;;;;;5083985;28;20247;-77
2023/06/08 08:36:11;;;;;;;9.98;6.32;;;23.30;99.90;;;;;;5087936;28;20643;-73
2023/06/08 08:38:39;;;;;;;6.68;5.90;;;23.40;99.90;;;;;;5088878;28;20697;-74
2023/06/08 08:41:09;;;;;;;6.25;5.70;;;23.50;99.90;;;;;;5088405;28;20537;-74
2023/06/08 08:43:40;;;;;;;7.65;6.55;;;23.70;99.90;;;;;;5088411;28;20216;-73
2023/06/08 08:46:08;;;;;;;7.05;6.32;;;23.80;99.90;;;;;;5084942;28;20204;-73
2023/06/08 08:48:42;;;;;;;9.57;7.10;;;23.80;99.90;;;;;;5082060;28;20661;-74
2023/06/08 08:51:12;;;;;;;8.85;6.32;;;23.60;99.90;;;;;;5087150;28;20222;-74
2023/06/08 08:53:40;;;;;;;6.82;6.07;;;23.70;99.90;;;;;;5088644;28;20230;-73
2023/06/08 08:56:09;;;;;;;6.60;6.00;;;23.80;99.90;;;;;;5087962;28;20257;-74
2023/06/08 08:58:38;;;;;;;7.90;6.63;;;23.70;99.90;;;;;;5088210;28;20620;-74
2023/06/08 09:01:08;;;;;;;7.28;6.65;;;23.80;99.90;;;;;;5088146;28;20230;-73
2023/06/08 09:03:37;;;;;;;7.53;6.22;;;23.80;99.90;;;;;;5088684;28;20261;-72
2023/06/08 09:06:06;;;;;;;9.10;6.75;;;23.90;99.90;;;;;;5088178;28;20207;-73
2023/06/08 09:08:34;;;;;;;7.60;6.47;;;24.10;99.90;;;;;;5088582;28;20184;-73
2023/06/08 09:11:04;;;;;;;9.45;6.70;;;24.30;99.90;;;;;;5088217;28;20265;-72
2023/06/08 09:13:32;;;;;;;6.50;5.90;;;24.50;99.90;;;;;;5081912;28;20217;-72
2023/06/08 09:16:08;;;;;;;6.93;5.63;;;24.70;99.90;;;;;;5078706;28;20231;-71
2023/06/08 09:18:38;;;;;;;6.50;5.75;;;24.90;99.90;;;;;;5085788;28;20720;-72
2023/06/08 09:21:22;;;;;;;6.18;5.65;;;24.90;99.90;;;;;;5088147;28;20690;-72
2023/06/08 09:24:07;;;;;;;5.85;5.32;;;25.10;99.90;;;;;;5086321;28;20716;-72
2023/06/08 09:26:45;;;;;;;5.78;5.38;;;25.20;99.90;;;;;;5083785;28;20215;-73
2023/06/08 09:29:32;;;;;;;8.73;6.47;;;25.30;99.90;;;;;;5086119;28;20188;-72
2023/06/08 09:32:03;;;;;;;6.03;5.40;;;25.40;99.90;;;;;;5083545;28;20207;-74
2023/06/08 09:34:49;;;;;;;5.75;5.38;;;25.50;99.90;;;;;;5085830;28;20330;-73
2023/06/08 09:37:18;;;;;;;6.68;5.93;;;25.50;99.90;;;;;;5086277;28;20677;-74
2023/06/08 09:39:47;;;;;;;6.40;5.90;;;25.50;99.90;;;;;;5086677;28;20234;-74
2023/06/08 09:42:15;;;;;;;11.43;6.40;;;25.60;99.90;;;;;;5087113;28;20629;-74
2023/06/08 09:44:43;;;;;;;6.35;5.75;;;25.80;99.90;;;;;;5086833;28;20341;-73
2023/06/08 09:47:25;;;;;;;8.00;5.97;;;26.00;99.90;;;;;;5086648;28;20693;-74
2023/06/08 09:49:57;;;;;;;8.52;7.90;;;26.20;99.90;;;;;;5085754;28;20589;-74
2023/06/08 09:52:25;;;;;;;6.43;5.82;;;26.30;99.90;;;;;;5087059;28;20286;-74
2023/06/08 09:54:53;;;;;;;5.95;5.55;;;26.50;99.90;;;;;;5087012;28;20228;-74
2023/06/08 09:57:21;;;;;;;8.40;5.53;;;26.60;99.90;;;;;;5087297;28;20220;-74
2023/06/08 09:59:53;;;;;;;6.68;6.03;;;26.80;99.90;;;;;;5087466;28;20231;-74
2023/06/08 10:02:23;;;;;;;6.57;5.97;;;26.90;99.90;;;;;;5092177;28;20235;-74
2023/06/08 10:04:54;;;;;;;6.20;5.72;;;27.00;99.90;;;;;;5091571;28;20245;-74
2023/06/08 10:07:24;;;;;;;6.13;5.60;;;27.20;99.90;;;;;;5091885;28;20225;-74
2023/06/08 10:09:55;;;;;;;6.95;6.25;;;27.30;99.90;;;;;;5092324;28;20199;-74
2023/06/08 10:12:23;;;;;;;6.43;5.78;;;27.50;99.90;;;;;;5092108;28;20464;-74
2023/06/08 10:14:51;;;;;;;8.65;5.90;;;27.70;99.90;;;;;;5090471;28;20810;-73
2023/06/08 10:17:19;;;;;;;6.00;5.40;;;27.90;99.90;;;;;;5092468;28;20295;-74
2023/06/08 10:19:47;;;;;;;5.70;5.30;;;28.10;99.90;;;;;;5092083;28;20785;-74
2023/06/08 10:22:14;;;;;;;7.22;6.07;;;28.30;99.90;;;;;;5092412;28;20299;-74
2023/06/08 10:24:45;;;;;;;6.18;5.03;;;28.40;99.90;;;;;;5091557;28;20224;-74
2023/06/08 10:27:33;;;;;;;6.32;5.80;;;28.10;99.90;;;;;;5091779;28;20696;-74
2023/06/08 10:30:03;;;;;;;6.45;5.88;;;28.20;99.90;;;;;;5092157;28;20688;-74
2023/06/08 10:32:31;;;;;;;6.07;5.47;;;28.40;99.90;;;;;;5091614;28;20237;-74
2023/06/08 10:35:03;;;;;;;5.32;5.03;;;28.60;99.90;;;;;;5091759;28;20285;-72
2023/06/08 10:37:32;;;;;;;5.60;5.20;;;28.90;99.90;;;;;;5091642;28;20687;-72
2023/06/08 10:40:08;;;;;;;6.47;5.88;;;29.10;99.90;;;;;;5091692;28;20216;-72
2023/06/08 10:42:36;;;;;;;6.30;5.70;;;29.20;99.90;;;;;;5091403;28;20202;-72
2023/06/08 10:45:06;;;;;;;6.20;5.68;;;29.30;99.90;;;;;;5090841;28;20763;-72
2023/06/08 10:47:37;;;;;;;6.13;5.30;;;29.30;99.90;;;;;;5091849;28;20212;-72
2023/06/08 10:50:09;;;;;;;5.45;5.00;;;29.40;99.90;;;;;;5091695;28;20204;-72
2023/06/08 10:52:42;;;;;;;5.30;4.82;;;29.50;99.90;;;;;;5091714;28;20249;-72
2023/06/08 10:55:12;;;;;;;5.95;5.45;;;29.60;99.90;;;;;;5091148;28;20188;-72
2023/06/08 10:57:41;;;;;;;8.05;5.72;;;29.50;99.90;;;;;;5091837;28;20264;-72
2023/06/08 11:00:42;;;;;;;5.55;5.15;;;29.80;99.90;;;;;;5091664;28;20746;-72
2023/06/08 11:03:12;;;;;;;5.80;5.28;;;30.20;99.90;;;;;;5091163;28;20770;-72
2023/06/08 11:05:41;;;;;;;6.40;5.20;;;30.50;99.90;;;;;;5090413;28;20212;-72
2023/06/08 11:08:10;;;;;;;6.22;5.60;;;30.80;99.90;;;;;;5091620;28;20238;-72
2023/06/08 11:10:40;;;;;;;5.40;4.65;;;30.60;99.90;;;;;;5090975;28;20665;-72
2023/06/08 11:13:08;;;;;;;5.30;4.90;;;30.70;99.90;;;;;;5090997;28;20397;-72
2023/06/08 11:15:37;;;;;;;6.53;5.93;;;30.50;99.90;;;;;;5090651;28;20223;-72
2023/06/08 11:18:07;;;;;;;5.45;5.05;;;30.50;99.90;;;;;;5090789;28;20295;-72
2023/06/08 11:20:35;;;;;;;6.47;5.72;;;30.80;99.90;;;;;;5091163;28;20255;-72
2023/06/08 11:23:05;;;;;;;6.55;5.25;;;30.90;99.90;;;;;;5090805;28;20536;-72
2023/06/08 11:25:34;;;;;;;8.02;5.50;;;30.90;99.90;;;;;;5090496;28;20212;-70
2023/06/08 11:28:04;;;;;;;4.80;4.50;;;31.10;99.90;;;;;;5091045;28;20192;-70
2023/06/08 11:30:33;;;;;;;5.90;5.35;;;31.20;99.90;;;;;;5092798;28;20184;-70
2023/06/08 11:33:01;;;;;;;8.90;5.30;;;31.50;99.90;;;;;;5090622;28;20235;-70
2023/06/08 11:35:29;;;;;;;6.07;5.22;;;31.70;99.90;;;;;;5090623;28;20630;-70
2023/06/08 11:37:59;;;;;;;5.72;5.25;;;32.10;99.90;;;;;;5090840;28;20239;-70
2023/06/08 11:40:27;;;;;;;5.20;5.00;;;32.10;99.90;;;;;;5091231;28;20208;-70
2023/06/08 11:42:56;;;;;;;5.18;4.75;;;32.10;99.90;;;;;;5091063;28;20241;-70
2023/06/08 11:45:25;;;;;;;5.70;5.20;;;32.30;99.90;;;;;;5089793;28;20665;-70
2023/06/08 11:47:54;;;;;;;5.57;5.13;;;32.30;99.90;;;;;;5090620;28;20243;-70
2023/06/08 11:50:48;;;;;;;6.55;5.97;;;32.40;99.90;;;;;;5090274;28;20208;-70
2023/06/08 11:53:22;;;;;;;5.15;4.88;;;32.60;99.90;;;;;;5090955;28;20683;-70
2023/06/08 11:55:51;;;;;;;5.53;4.80;;;32.80;99.90;;;;;;5089239;28;20596;-71
2023/06/08 11:58:24;;;;;;;5.35;5.05;;;33.20;99.60;;;;;;5089477;28;20192;-71
2023/06/08 12:01:04;;;;;;;5.50;5.10;;;33.30;97.50;;;;;;5086556;28;20212;-70
2023/06/08 12:03:33;;;;;;;5.70;5.20;;;33.30;97.60;;;;;;5087790;28;20495;-70
2023/06/08 12:06:03;;;;;;;5.60;5.25;;;33.40;98.80;;;;;;5088250;28;20236;-69
2023/06/08 12:08:30;;;;;;;5.25;4.75;;;33.30;97.00;;;;;;5089703;28;20568;-71
2023/06/08 12:11:00;;;;;;;5.43;5.15;;;32.80;97.00;;;;;;5078210;28;20196;-71
2023/06/08 12:13:28;;;;;;;5.20;4.80;;;32.60;97.80;;;;;;5087202;28;20282;-71
2023/06/08 12:15:57;;;;;;;6.05;5.10;;;32.80;97.50;;;;;;5087466;28;20280;-71
2023/06/08 12:18:25;;;;;;;5.75;5.22;;;33.10;97.50;;;;;;5089489;28;20394;-73
2023/06/08 12:20:54;;;;;;;5.63;4.68;;;33.70;97.20;;;;;;5088921;28;20651;-72
2023/06/08 12:23:22;;;;;;;5.40;4.75;;;34.00;96.40;;;;;;5085584;28;20288;-73
2023/06/08 12:25:51;;;;;;;5.55;5.03;;;33.70;93.80;;;;;;5089104;28;20199;-72
2023/06/08 12:28:24;;;;;;;5.18;4.78;;;32.80;93.40;;;;;;5089039;28;20204;-72
2023/06/08 12:30:51;;;;;;;5.95;5.22;;;32.20;95.70;;;;;;5088385;28;20650;-75
2023/06/08 12:33:21;;;;;;;5.40;4.95;;;32.40;96.60;;;;;;5090010;28;20649;-73
2023/06/08 12:35:50;;;;;;;5.13;4.80;;;32.80;95.90;;;;;;5089928;28;20185;-72
2023/06/08 12:38:18;;;;;;;5.40;4.90;;;32.60;93.80;;;;;;5089550;28;20630;-74
2023/06/08 12:40:48;;;;;;;5.05;4.82;;;32.00;93.80;;;;;;5088981;28;20243;-72
2023/06/08 12:43:16;;;;;;;5.13;4.82;;;31.30;94.00;;;;;;5088994;28;20215;-72
2023/06/08 12:45:44;;;;;;;4.93;4.63;;;30.60;95.50;;;;;;5089100;28;20265;-72
2023/06/08 12:48:13;;;;;;;5.30;4.72;;;29.90;95.40;;;;;;5089543;28;20246;-72
2023/06/08 12:50:42;;;;;;;6.38;5.28;;;29.40;96.60;;;;;;5088872;28;20468;-72
2023/06/08 12:53:10;;;;;;;5.80;5.30;;;29.10;97.30;;;;;;5089331;28;20625;-72
2023/06/08 12:55:38;;;;;;;5.40;5.10;;;29.00;97.60;;;;;;5088858;28;20307;-72
2023/06/08 12:58:06;;;;;;;5.63;5.30;;;28.80;98.10;;;;;;5090906;28;20227;-72